sensor_id;sensor_type;location;lat;lon;timestamp;temperature;humidity
7972;DHT22;4031;49.758;6.120;2023-04-16T00:02:19;8.40;99.90
7972;DHT22;4031;49.758;6.120;2023-04-16T00:04:45;8.40;99.90
7972;DHT22;4031;49.758;6.120;2023-04-16T00:07:11;8.30;99.90
7972;DHT22;4031;49.758;6.120;2023-04-16T00:09:37;8.30;99.90
7972;DHT22;4031;49.758;6.120;2023-04-16T00:12:03;8.30;99.90
7972;DHT22;4031;49.758;6.120;2023-04-16T00:14:30;8.30;99.90
7972;DHT22;4031;49.758;6.120;2023-04-16T00:16:56;8.30;99.90
7972;DHT22;4031;49.758;6.120;2023-04-16T00:19:22;8.30;99.90
7972;DHT22;4031;49.758;6.120;2023-04-16T00:21:47;8.30;99.90
7972;DHT22;4031;49.758;6.120;2023-04-16T00:24:13;8.20;99.90
7972;DHT22;4031;49.758;6.120;2023-04-16T00:26:39;8.20;99.90
7972;DHT22;4031;49.758;6.120;2023-04-16T00:29:05;8.20;99.90
7972;DHT22;4031;49.758;6.120;2023-04-16T00:31:32;8.20;99.90
7972;DHT22;4031;49.758;6.120;2023-04-16T00:33:58;8.20;99.90
7972;DHT22;4031;49.758;6.120;2023-04-16T00:36:26;8.20;99.90
7972;DHT22;4031;49.758;6.120;2023-04-16T00:38:54;8.20;99.90
7972;DHT22;4031;49.758;6.120;2023-04-16T00:41:20;8.10;99.90
7972;DHT22;4031;49.758;6.120;2023-04-16T00:43:47;8.10;99.90
7972;DHT22;4031;49.758;6.120;2023-04-16T00:46:23;8.10;99.90
7972;DHT22;4031;49.758;6.120;2023-04-16T00:48:50;8.10;99.90
7972;DHT22;4031;49.758;6.120;2023-04-16T00:51:18;8.10;99.90
7972;DHT22;4031;49.758;6.120;2023-04-16T00:53:47;8.10;99.90
7972;DHT22;4031;49.758;6.120;2023-04-16T00:56:13;8.10;99.90
7972;DHT22;4031;49.758;6.120;2023-04-16T00:58:39;8.10;99.90
7972;DHT22;4031;49.758;6.120;2023-04-16T01:01:05;8.00;99.90
7972;DHT22;4031;49.758;6.120;2023-04-16T01:03:37;8.00;99.90
7972;DHT22;4031;49.758;6.120;2023-04-16T01:06:06;8.00;99.90
7972;DHT22;4031;49.758;6.120;2023-04-16T01:08:32;8.10;99.90
7972;DHT22;4031;49.758;6.120;2023-04-16T01:10:57;8.10;99.90
7972;DHT22;4031;49.758;6.120;2023-04-16T01:13:23;8.10;99.90
7972;DHT22;4031;49.758;6.120;2023-04-16T01:15:49;8.10;99.90
7972;DHT22;4031;49.758;6.120;2023-04-16T01:18:15;8.00;99.90
7972;DHT22;4031;49.758;6.120;2023-04-16T01:20:42;8.00;99.90
7972;DHT22;4031;49.758;6.120;2023-04-16T01:23:08;8.00;99.90
7972;DHT22;4031;49.758;6.120;2023-04-16T01:25:33;8.00;99.90
7972;DHT22;4031;49.758;6.120;2023-04-16T01:27:59;7.90;99.90
7972;DHT22;4031;49.758;6.120;2023-04-16T01:30:25;7.90;99.90
7972;DHT22;4031;49.758;6.120;2023-04-16T01:32:51;7.90;99.90
7972;DHT22;4031;49.758;6.120;2023-04-16T01:35:16;7.90;99.90
7972;DHT22;4031;49.758;6.120;2023-04-16T01:37:43;7.90;99.90
7972;DHT22;4031;49.758;6.120;2023-04-16T01:40:09;7.90;99.90
7972;DHT22;4031;49.758;6.120;2023-04-16T01:42:35;7.90;99.90
7972;DHT22;4031;49.758;6.120;2023-04-16T01:45:01;7.90;99.90
7972;DHT22;4031;49.758;6.120;2023-04-16T01:47:27;7.90;99.90
7972;DHT22;4031;49.758;6.120;2023-04-16T01:49:53;7.90;99.90
7972;DHT22;4031;49.758;6.120;2023-04-16T01:52:18;7.80;99.90
7972;DHT22;4031;49.758;6.120;2023-04-16T01:54:44;7.90;99.90
7972;DHT22;4031;49.758;6.120;2023-04-16T01:57:10;7.80;99.90
7972;DHT22;4031;49.758;6.120;2023-04-16T01:59:36;7.80;99.90
7972;DHT22;4031;49.758;6.120;2023-04-16T02:02:09;7.80;99.90
7972;DHT22;4031;49.758;6.120;2023-04-16T02:04:39;7.80;99.90
7972;DHT22;4031;49.758;6.120;2023-04-16T02:07:06;7.80;99.90
7972;DHT22;4031;49.758;6.120;2023-04-16T02:09:39;7.80;99.90
7972;DHT22;4031;49.758;6.120;2023-04-16T02:12:06;7.80;99.90
7972;DHT22;4031;49.758;6.120;2023-04-16T02:14:32;7.70;99.90
7972;DHT22;4031;49.758;6.120;2023-04-16T02:16:59;7.70;99.90
7972;DHT22;4031;49.758;6.120;2023-04-16T02:19:25;7.70;99.90
7972;DHT22;4031;49.758;6.120;2023-04-16T02:21:51;7.70;99.90
7972;DHT22;4031;49.758;6.120;2023-04-16T02:24:18;7.70;99.90
7972;DHT22;4031;49.758;6.120;2023-04-16T02:26:44;7.60;99.90
7972;DHT22;4031;49.758;6.120;2023-04-16T02:29:10;7.60;99.90
7972;DHT22;4031;49.758;6.120;2023-04-16T02:31:36;7.60;99.90
7972;DHT22;4031;49.758;6.120;2023-04-16T02:34:02;7.60;99.90
7972;DHT22;4031;49.758;6.120;2023-04-16T02:36:29;7.60;99.90
7972;DHT22;4031;49.758;6.120;2023-04-16T02:38:56;7.60;99.90
7972;DHT22;4031;49.758;6.120;2023-04-16T02:41:22;7.60;99.90
7972;DHT22;4031;49.758;6.120;2023-04-16T02:43:48;7.70;99.90
7972;DHT22;4031;49.758;6.120;2023-04-16T02:46:14;7.70;99.90
7972;DHT22;4031;49.758;6.120;2023-04-16T02:48:39;7.60;99.90
7972;DHT22;4031;49.758;6.120;2023-04-16T02:51:05;7.70;99.90
7972;DHT22;4031;49.758;6.120;2023-04-16T02:53:31;7.70;99.90
7972;DHT22;4031;49.758;6.120;2023-04-16T02:55:57;7.60;99.90
7972;DHT22;4031;49.758;6.120;2023-04-16T02:58:23;7.70;99.90
7972;DHT22;4031;49.758;6.120;2023-04-16T03:00:54;7.60;99.90
7972;DHT22;4031;49.758;6.120;2023-04-16T03:03:20;7.60;99.90
7972;DHT22;4031;49.758;6.120;2023-04-16T03:05:46;7.60;99.90
7972;DHT22;4031;49.758;6.120;2023-04-16T03:08:12;7.60;99.90
7972;DHT22;4031;49.758;6.120;2023-04-16T03:10:38;7.60;99.90
7972;DHT22;4031;49.758;6.120;2023-04-16T03:13:03;7.50;99.90
7972;DHT22;4031;49.758;6.120;2023-04-16T03:15:29;7.60;99.90
7972;DHT22;4031;49.758;6.120;2023-04-16T03:17:56;7.50;99.90
7972;DHT22;4031;49.758;6.120;2023-04-16T03:20:22;7.50;99.90
7972;DHT22;4031;49.758;6.120;2023-04-16T03:22:48;7.50;99.90
7972;DHT22;4031;49.758;6.120;2023-04-16T03:25:14;7.40;99.90
7972;DHT22;4031;49.758;6.120;2023-04-16T03:27:40;7.40;99.90
7972;DHT22;4031;49.758;6.120;2023-04-16T03:30:07;7.40;99.90
7972;DHT22;4031;49.758;6.120;2023-04-16T03:32:34;7.40;99.90
7972;DHT22;4031;49.758;6.120;2023-04-16T03:35:02;7.40;99.90
7972;DHT22;4031;49.758;6.120;2023-04-16T03:37:28;7.40;99.90
7972;DHT22;4031;49.758;6.120;2023-04-16T03:39:54;7.40;99.90
7972;DHT22;4031;49.758;6.120;2023-04-16T03:42:20;7.40;99.90
7972;DHT22;4031;49.758;6.120;2023-04-16T03:44:45;7.40;99.90
7972;DHT22;4031;49.758;6.120;2023-04-16T03:47:11;7.40;99.90
7972;DHT22;4031;49.758;6.120;2023-04-16T03:49:37;7.40;99.90
7972;DHT22;4031;49.758;6.120;2023-04-16T03:52:03;7.40;99.90
7972;DHT22;4031;49.758;6.120;2023-04-16T03:54:29;7.30;99.90
7972;DHT22;4031;49.758;6.120;2023-04-16T03:56:55;7.30;99.90
7972;DHT22;4031;49.758;6.120;2023-04-16T03:59:21;7.30;99.90
7972;DHT22;4031;49.758;6.120;2023-04-16T04:01:47;7.30;99.90
7972;DHT22;4031;49.758;6.120;2023-04-16T04:04:12;7.30;99.90
7972;DHT22;4031;49.758;6.120;2023-04-16T04:06:38;7.30;99.90
7972;DHT22;4031;49.758;6.120;2023-04-16T04:09:05;7.30;99.90
7972;DHT22;4031;49.758;6.120;2023-04-16T04:11:30;7.30;99.90
7972;DHT22;4031;49.758;6.120;2023-04-16T04:13:56;7.30;99.90
7972;DHT22;4031;49.758;6.120;2023-04-16T04:16:22;7.30;99.90
7972;DHT22;4031;49.758;6.120;2023-04-16T04:18:47;7.30;99.90
7972;DHT22;4031;49.758;6.120;2023-04-16T04:21:13;7.30;99.90
7972;DHT22;4031;49.758;6.120;2023-04-16T04:23:39;7.30;99.90
7972;DHT22;4031;49.758;6.120;2023-04-16T04:26:06;7.30;99.90
7972;DHT22;4031;49.758;6.120;2023-04-16T04:28:32;7.30;99.90
7972;DHT22;4031;49.758;6.120;2023-04-16T04:30:58;7.30;99.90
7972;DHT22;4031;49.758;6.120;2023-04-16T04:33:27;7.30;99.90
7972;DHT22;4031;49.758;6.120;2023-04-16T04:35:53;7.20;99.90
7972;DHT22;4031;49.758;6.120;2023-04-16T04:38:20;7.30;99.90
7972;DHT22;4031;49.758;6.120;2023-04-16T04:40:52;7.20;99.90
7972;DHT22;4031;49.758;6.120;2023-04-16T04:43:19;7.30;99.90
7972;DHT22;4031;49.758;6.120;2023-04-16T04:45:45;7.20;99.90
7972;DHT22;4031;49.758;6.120;2023-04-16T04:48:11;7.20;99.90
7972;DHT22;4031;49.758;6.120;2023-04-16T04:50:37;7.20;99.90
7972;DHT22;4031;49.758;6.120;2023-04-16T04:53:04;7.30;99.90
7972;DHT22;4031;49.758;6.120;2023-04-16T04:55:40;7.20;99.90
7972;DHT22;4031;49.758;6.120;2023-04-16T04:58:07;7.20;99.90
7972;DHT22;4031;49.758;6.120;2023-04-16T05:00:34;7.20;99.90
7972;DHT22;4031;49.758;6.120;2023-04-16T05:03:05;7.30;99.90
7972;DHT22;4031;49.758;6.120;2023-04-16T05:05:32;7.30;99.90
7972;DHT22;4031;49.758;6.120;2023-04-16T05:07:58;7.30;99.90
7972;DHT22;4031;49.758;6.120;2023-04-16T05:10:24;7.30;99.90
7972;DHT22;4031;49.758;6.120;2023-04-16T05:12:49;7.30;99.90
7972;DHT22;4031;49.758;6.120;2023-04-16T05:15:15;7.30;99.90
7972;DHT22;4031;49.758;6.120;2023-04-16T05:17:41;7.30;99.90
7972;DHT22;4031;49.758;6.120;2023-04-16T05:20:10;7.40;99.90
7972;DHT22;4031;49.758;6.120;2023-04-16T05:22:36;7.30;99.90
7972;DHT22;4031;49.758;6.120;2023-04-16T05:25:02;7.40;99.90
7972;DHT22;4031;49.758;6.120;2023-04-16T05:27:28;7.40;99.90
7972;DHT22;4031;49.758;6.120;2023-04-16T05:29:53;7.40;99.90
7972;DHT22;4031;49.758;6.120;2023-04-16T05:32:19;7.40;99.90
7972;DHT22;4031;49.758;6.120;2023-04-16T05:34:45;7.40;99.90
7972;DHT22;4031;49.758;6.120;2023-04-16T05:37:10;7.40;99.90
7972;DHT22;4031;49.758;6.120;2023-04-16T05:39:36;7.40;99.90
7972;DHT22;4031;49.758;6.120;2023-04-16T05:42:02;7.40;99.90
7972;DHT22;4031;49.758;6.120;2023-04-16T05:44:28;7.40;99.90
7972;DHT22;4031;49.758;6.120;2023-04-16T05:46:53;7.40;99.90
7972;DHT22;4031;49.758;6.120;2023-04-16T05:49:19;7.40;99.90
7972;DHT22;4031;49.758;6.120;2023-04-16T05:51:46;7.50;99.90
7972;DHT22;4031;49.758;6.120;2023-04-16T05:54:12;7.50;99.90
7972;DHT22;4031;49.758;6.120;2023-04-16T05:56:38;7.60;99.90
7972;DHT22;4031;49.758;6.120;2023-04-16T05:59:04;7.60;99.90
7972;DHT22;4031;49.758;6.120;2023-04-16T06:01:29;7.60;99.90
7972;DHT22;4031;49.758;6.120;2023-04-16T06:03:56;7.60;99.90
7972;DHT22;4031;49.758;6.120;2023-04-16T06:06:21;7.60;99.90
7972;DHT22;4031;49.758;6.120;2023-04-16T06:08:47;7.70;99.90
7972;DHT22;4031;49.758;6.120;2023-04-16T06:11:13;7.70;99.90
7972;DHT22;4031;49.758;6.120;2023-04-16T06:13:38;7.70;99.90
7972;DHT22;4031;49.758;6.120;2023-04-16T06:16:05;7.70;99.90
7972;DHT22;4031;49.758;6.120;2023-04-16T06:18:30;7.70;99.90
7972;DHT22;4031;49.758;6.120;2023-04-16T06:20:56;7.70;99.90
7972;DHT22;4031;49.758;6.120;2023-04-16T06:23:23;7.70;99.90
7972;DHT22;4031;49.758;6.120;2023-04-16T06:25:49;7.70;99.90
7972;DHT22;4031;49.758;6.120;2023-04-16T06:28:15;7.70;99.90
7972;DHT22;4031;49.758;6.120;2023-04-16T06:30:40;7.70;99.90
7972;DHT22;4031;49.758;6.120;2023-04-16T06:33:06;7.70;99.90
7972;DHT22;4031;49.758;6.120;2023-04-16T06:35:32;7.70;99.90
7972;DHT22;4031;49.758;6.120;2023-04-16T06:37:57;7.70;99.90
7972;DHT22;4031;49.758;6.120;2023-04-16T06:40:23;7.80;99.90
7972;DHT22;4031;49.758;6.120;2023-04-16T06:42:49;7.80;99.90
7972;DHT22;4031;49.758;6.120;2023-04-16T06:45:14;7.80;99.90
7972;DHT22;4031;49.758;6.120;2023-04-16T06:47:40;7.90;99.90
7972;DHT22;4031;49.758;6.120;2023-04-16T06:50:06;8.00;99.90
7972;DHT22;4031;49.758;6.120;2023-04-16T06:52:32;8.10;99.90
7972;DHT22;4031;49.758;6.120;2023-04-16T06:54:58;8.10;99.90
7972;DHT22;4031;49.758;6.120;2023-04-16T06:57:23;8.20;99.90
7972;DHT22;4031;49.758;6.120;2023-04-16T06:59:49;8.30;99.90
7972;DHT22;4031;49.758;6.120;2023-04-16T07:02:15;8.30;99.90
7972;DHT22;4031;49.758;6.120;2023-04-16T07:04:41;8.40;99.90
7972;DHT22;4031;49.758;6.120;2023-04-16T07:07:07;8.50;99.90
7972;DHT22;4031;49.758;6.120;2023-04-16T07:09:33;8.60;99.90
7972;DHT22;4031;49.758;6.120;2023-04-16T07:11:59;8.60;99.90
7972;DHT22;4031;49.758;6.120;2023-04-16T07:14:24;8.70;99.90
7972;DHT22;4031;49.758;6.120;2023-04-16T07:16:50;8.90;99.90
7972;DHT22;4031;49.758;6.120;2023-04-16T07:19:16;9.10;99.90
7972;DHT22;4031;49.758;6.120;2023-04-16T07:21:41;9.30;99.90
7972;DHT22;4031;49.758;6.120;2023-04-16T07:24:09;9.60;99.90
7972;DHT22;4031;49.758;6.120;2023-04-16T07:26:38;9.90;99.90
7972;DHT22;4031;49.758;6.120;2023-04-16T07:29:04;10.10;99.90
7972;DHT22;4031;49.758;6.120;2023-04-16T07:31:29;10.20;99.90
7972;DHT22;4031;49.758;6.120;2023-04-16T07:33:55;10.10;99.90
7972;DHT22;4031;49.758;6.120;2023-04-16T07:36:22;10.10;99.90
7972;DHT22;4031;49.758;6.120;2023-04-16T07:38:48;10.00;99.90
7972;DHT22;4031;49.758;6.120;2023-04-16T07:41:13;10.10;99.90
7972;DHT22;4031;49.758;6.120;2023-04-16T07:43:39;10.00;99.90
7972;DHT22;4031;49.758;6.120;2023-04-16T07:46:05;10.00;99.90
7972;DHT22;4031;49.758;6.120;2023-04-16T07:48:31;10.20;99.90
7972;DHT22;4031;49.758;6.120;2023-04-16T07:50:56;10.20;99.90
7972;DHT22;4031;49.758;6.120;2023-04-16T07:53:22;10.40;99.90
7972;DHT22;4031;49.758;6.120;2023-04-16T07:55:48;10.30;99.90
7972;DHT22;4031;49.758;6.120;2023-04-16T07:58:13;10.30;99.90
7972;DHT22;4031;49.758;6.120;2023-04-16T08:00:39;10.30;99.90
7972;DHT22;4031;49.758;6.120;2023-04-16T08:03:05;10.20;99.90
7972;DHT22;4031;49.758;6.120;2023-04-16T08:05:30;10.20;99.90
7972;DHT22;4031;49.758;6.120;2023-04-16T08:07:56;10.50;99.90
7972;DHT22;4031;49.758;6.120;2023-04-16T08:10:22;10.70;99.90
7972;DHT22;4031;49.758;6.120;2023-04-16T08:12:48;11.10;99.90
7972;DHT22;4031;49.758;6.120;2023-04-16T08:15:13;11.50;99.90
7972;DHT22;4031;49.758;6.120;2023-04-16T08:17:39;13.00;99.90
7972;DHT22;4031;49.758;6.120;2023-04-16T08:20:05;14.10;99.90
7972;DHT22;4031;49.758;6.120;2023-04-16T08:22:32;14.20;99.90
7972;DHT22;4031;49.758;6.120;2023-04-16T08:24:58;13.40;99.90
7972;DHT22;4031;49.758;6.120;2023-04-16T08:27:23;12.90;99.90
7972;DHT22;4031;49.758;6.120;2023-04-16T08:29:49;12.20;99.90
7972;DHT22;4031;49.758;6.120;2023-04-16T08:32:15;11.90;99.90
7972;DHT22;4031;49.758;6.120;2023-04-16T08:34:41;11.70;99.90
7972;DHT22;4031;49.758;6.120;2023-04-16T08:37:07;11.80;99.90
7972;DHT22;4031;49.758;6.120;2023-04-16T08:39:33;11.70;99.90
7972;DHT22;4031;49.758;6.120;2023-04-16T08:42:01;11.70;99.90
7972;DHT22;4031;49.758;6.120;2023-04-16T08:44:34;11.80;99.90
7972;DHT22;4031;49.758;6.120;2023-04-16T08:47:02;11.90;99.90
7972;DHT22;4031;49.758;6.120;2023-04-16T08:49:28;12.00;99.90
7972;DHT22;4031;49.758;6.120;2023-04-16T08:51:55;12.00;99.90
7972;DHT22;4031;49.758;6.120;2023-04-16T08:57:04;12.00;99.90
7972;DHT22;4031;49.758;6.120;2023-04-16T08:59:31;12.10;99.90
7972;DHT22;4031;49.758;6.120;2023-04-16T09:01:58;12.10;99.90
7972;DHT22;4031;49.758;6.120;2023-04-16T09:04:26;12.00;99.90
7972;DHT22;4031;49.758;6.120;2023-04-16T09:06:55;11.80;99.90
7972;DHT22;4031;49.758;6.120;2023-04-16T09:09:27;11.80;99.90
7972;DHT22;4031;49.758;6.120;2023-04-16T09:11:53;11.60;99.90
7972;DHT22;4031;49.758;6.120;2023-04-16T09:14:19;11.60;99.90
7972;DHT22;4031;49.758;6.120;2023-04-16T09:16:45;11.90;99.90
7972;DHT22;4031;49.758;6.120;2023-04-16T09:19:14;12.20;99.90
7972;DHT22;4031;49.758;6.120;2023-04-16T09:21:41;12.00;99.90
7972;DHT22;4031;49.758;6.120;2023-04-16T09:24:08;12.00;99.90
7972;DHT22;4031;49.758;6.120;2023-04-16T09:26:35;11.90;99.90
7972;DHT22;4031;49.758;6.120;2023-04-16T09:29:01;12.20;99.90
7972;DHT22;4031;49.758;6.120;2023-04-16T09:31:27;12.30;99.90
7972;DHT22;4031;49.758;6.120;2023-04-16T09:34:04;12.30;99.90
7972;DHT22;4031;49.758;6.120;2023-04-16T09:36:31;12.10;99.90
7972;DHT22;4031;49.758;6.120;2023-04-16T09:38:58;12.10;99.90
7972;DHT22;4031;49.758;6.120;2023-04-16T09:41:25;12.20;99.90
7972;DHT22;4031;49.758;6.120;2023-04-16T09:43:59;12.40;99.90
7972;DHT22;4031;49.758;6.120;2023-04-16T09:46:30;12.30;99.90
7972;DHT22;4031;49.758;6.120;2023-04-16T09:49:15;12.40;99.90
7972;DHT22;4031;49.758;6.120;2023-04-16T09:51:45;12.80;99.90
7972;DHT22;4031;49.758;6.120;2023-04-16T09:54:14;12.80;99.90
7972;DHT22;4031;49.758;6.120;2023-04-16T09:56:44;12.90;99.90
7972;DHT22;4031;49.758;6.120;2023-04-16T09:59:20;13.00;99.90
7972;DHT22;4031;49.758;6.120;2023-04-16T10:01:47;13.50;99.90
7972;DHT22;4031;49.758;6.120;2023-04-16T10:04:17;14.60;99.90
7972;DHT22;4031;49.758;6.120;2023-04-16T10:06:44;15.70;99.90
7972;DHT22;4031;49.758;6.120;2023-04-16T10:09:37;16.10;99.90
7972;DHT22;4031;49.758;6.120;2023-04-16T10:12:03;17.40;99.90
7972;DHT22;4031;49.758;6.120;2023-04-16T10:14:29;17.60;99.90
7972;DHT22;4031;49.758;6.120;2023-04-16T10:16:55;17.60;99.90
7972;DHT22;4031;49.758;6.120;2023-04-16T10:19:23;16.60;99.90
7972;DHT22;4031;49.758;6.120;2023-04-16T10:21:49;15.90;99.90
7972;DHT22;4031;49.758;6.120;2023-04-16T10:24:15;15.00;99.90
7972;DHT22;4031;49.758;6.120;2023-04-16T10:26:43;14.50;99.90
7972;DHT22;4031;49.758;6.120;2023-04-16T10:29:11;14.40;99.90
7972;DHT22;4031;49.758;6.120;2023-04-16T10:31:38;14.30;99.90
7972;DHT22;4031;49.758;6.120;2023-04-16T10:34:06;14.40;99.90
7972;DHT22;4031;49.758;6.120;2023-04-16T10:36:36;14.20;99.90
7972;DHT22;4031;49.758;6.120;2023-04-16T10:39:02;14.50;99.90
7972;DHT22;4031;49.758;6.120;2023-04-16T10:41:31;14.30;99.90
7972;DHT22;4031;49.758;6.120;2023-04-16T10:46:41;14.20;99.90
7972;DHT22;4031;49.758;6.120;2023-04-16T10:49:18;14.10;99.90
7972;DHT22;4031;49.758;6.120;2023-04-16T10:51:54;13.70;99.90
7972;DHT22;4031;49.758;6.120;2023-04-16T10:54:29;13.60;99.90
7972;DHT22;4031;49.758;6.120;2023-04-16T10:56:57;13.80;99.90
7972;DHT22;4031;49.758;6.120;2023-04-16T10:59:28;14.40;99.90
7972;DHT22;4031;49.758;6.120;2023-04-16T11:01:58;14.40;99.90
7972;DHT22;4031;49.758;6.120;2023-04-16T11:04:27;14.50;99.90
7972;DHT22;4031;49.758;6.120;2023-04-16T11:09:54;14.30;99.90
7972;DHT22;4031;49.758;6.120;2023-04-16T11:15:00;14.70;99.90
7972;DHT22;4031;49.758;6.120;2023-04-16T11:17:49;14.60;99.90
7972;DHT22;4031;49.758;6.120;2023-04-16T11:20:18;14.50;99.90
7972;DHT22;4031;49.758;6.120;2023-04-16T11:22:45;14.80;99.90
7972;DHT22;4031;49.758;6.120;2023-04-16T11:25:25;14.90;99.90
7972;DHT22;4031;49.758;6.120;2023-04-16T11:27:54;15.00;99.90
7972;DHT22;4031;49.758;6.120;2023-04-16T11:30:34;15.80;99.90
7972;DHT22;4031;49.758;6.120;2023-04-16T11:33:10;16.70;99.90
7972;DHT22;4031;49.758;6.120;2023-04-16T11:35:37;17.70;99.90
7972;DHT22;4031;49.758;6.120;2023-04-16T11:38:04;16.90;99.90
7972;DHT22;4031;49.758;6.120;2023-04-16T11:40:33;16.10;99.90
7972;DHT22;4031;49.758;6.120;2023-04-16T11:43:05;16.10;99.90
7972;DHT22;4031;49.758;6.120;2023-04-16T11:45:38;16.80;99.90
7972;DHT22;4031;49.758;6.120;2023-04-16T11:48:03;16.90;99.90
7972;DHT22;4031;49.758;6.120;2023-04-16T11:50:29;17.00;99.90
7972;DHT22;4031;49.758;6.120;2023-04-16T11:53:02;16.70;99.90
7972;DHT22;4031;49.758;6.120;2023-04-16T11:55:28;16.60;99.90
7972;DHT22;4031;49.758;6.120;2023-04-16T11:57:54;16.80;99.90
7972;DHT22;4031;49.758;6.120;2023-04-16T12:00:21;17.30;99.90
7972;DHT22;4031;49.758;6.120;2023-04-16T12:02:52;18.00;99.90
7972;DHT22;4031;49.758;6.120;2023-04-16T12:08:07;18.50;99.90
7972;DHT22;4031;49.758;6.120;2023-04-16T12:10:36;18.20;99.90
7972;DHT22;4031;49.758;6.120;2023-04-16T12:13:17;17.80;99.90
7972;DHT22;4031;49.758;6.120;2023-04-16T12:18:13;17.20;99.90
7972;DHT22;4031;49.758;6.120;2023-04-16T12:20:41;17.70;99.90
7972;DHT22;4031;49.758;6.120;2023-04-16T12:23:07;18.70;99.90
7972;DHT22;4031;49.758;6.120;2023-04-16T12:25:34;18.80;99.90
7972;DHT22;4031;49.758;6.120;2023-04-16T12:28:00;18.00;99.90
7972;DHT22;4031;49.758;6.120;2023-04-16T12:30:26;17.20;99.90
7972;DHT22;4031;49.758;6.120;2023-04-16T12:33:12;16.30;99.90
7972;DHT22;4031;49.758;6.120;2023-04-16T12:35:41;15.70;99.90
7972;DHT22;4031;49.758;6.120;2023-04-16T12:38:08;16.00;99.90
7972;DHT22;4031;49.758;6.120;2023-04-16T12:40:34;16.70;99.90
7972;DHT22;4031;49.758;6.120;2023-04-16T12:43:01;17.30;99.90
7972;DHT22;4031;49.758;6.120;2023-04-16T12:45:27;17.20;99.90
7972;DHT22;4031;49.758;6.120;2023-04-16T12:47:52;16.80;99.90
7972;DHT22;4031;49.758;6.120;2023-04-16T12:50:18;17.10;99.90
7972;DHT22;4031;49.758;6.120;2023-04-16T12:52:44;16.90;99.90
7972;DHT22;4031;49.758;6.120;2023-04-16T12:55:10;16.80;99.90
7972;DHT22;4031;49.758;6.120;2023-04-16T12:57:36;16.40;99.90
7972;DHT22;4031;49.758;6.120;2023-04-16T13:00:02;16.30;99.90
7972;DHT22;4031;49.758;6.120;2023-04-16T13:02:30;16.10;99.90
7972;DHT22;4031;49.758;6.120;2023-04-16T13:04:57;16.00;99.90
7972;DHT22;4031;49.758;6.120;2023-04-16T13:07:23;15.70;99.90
7972;DHT22;4031;49.758;6.120;2023-04-16T13:09:51;15.50;99.90
7972;DHT22;4031;49.758;6.120;2023-04-16T13:12:16;15.50;99.90
7972;DHT22;4031;49.758;6.120;2023-04-16T13:14:42;15.40;99.90
7972;DHT22;4031;49.758;6.120;2023-04-16T13:17:08;15.50;99.90
7972;DHT22;4031;49.758;6.120;2023-04-16T13:19:34;15.70;99.90
7972;DHT22;4031;49.758;6.120;2023-04-16T13:21:59;15.70;99.90
7972;DHT22;4031;49.758;6.120;2023-04-16T13:24:25;16.60;99.90
7972;DHT22;4031;49.758;6.120;2023-04-16T13:26:51;17.00;99.90
7972;DHT22;4031;49.758;6.120;2023-04-16T13:29:17;17.00;99.90
7972;DHT22;4031;49.758;6.120;2023-04-16T13:31:44;17.30;99.90
7972;DHT22;4031;49.758;6.120;2023-04-16T13:34:09;17.40;99.90
7972;DHT22;4031;49.758;6.120;2023-04-16T13:36:35;17.10;99.90
7972;DHT22;4031;49.758;6.120;2023-04-16T13:39:01;17.30;99.90
7972;DHT22;4031;49.758;6.120;2023-04-16T13:41:29;17.60;99.90
7972;DHT22;4031;49.758;6.120;2023-04-16T13:43:56;18.60;99.90
7972;DHT22;4031;49.758;6.120;2023-04-16T13:46:21;19.30;99.90
7972;DHT22;4031;49.758;6.120;2023-04-16T13:48:47;19.40;99.90
7972;DHT22;4031;49.758;6.120;2023-04-16T13:51:13;19.10;99.90
7972;DHT22;4031;49.758;6.120;2023-04-16T13:53:40;19.30;99.90
7972;DHT22;4031;49.758;6.120;2023-04-16T13:56:06;19.90;99.90
7972;DHT22;4031;49.758;6.120;2023-04-16T13:58:32;18.80;99.90
7972;DHT22;4031;49.758;6.120;2023-04-16T14:00:58;18.00;99.90
7972;DHT22;4031;49.758;6.120;2023-04-16T14:03:24;16.90;99.90
7972;DHT22;4031;49.758;6.120;2023-04-16T14:05:51;16.10;99.90
7972;DHT22;4031;49.758;6.120;2023-04-16T14:08:18;15.50;99.90
7972;DHT22;4031;49.758;6.120;2023-04-16T14:10:48;15.20;99.90
7972;DHT22;4031;49.758;6.120;2023-04-16T14:13:14;16.10;99.90
7972;DHT22;4031;49.758;6.120;2023-04-16T14:15:40;17.20;99.90
7972;DHT22;4031;49.758;6.120;2023-04-16T14:18:06;17.50;99.90
7972;DHT22;4031;49.758;6.120;2023-04-16T14:20:31;18.10;99.90
7972;DHT22;4031;49.758;6.120;2023-04-16T14:22:57;18.10;99.90
7972;DHT22;4031;49.758;6.120;2023-04-16T14:25:23;18.40;99.90
7972;DHT22;4031;49.758;6.120;2023-04-16T14:27:49;18.00;99.90
7972;DHT22;4031;49.758;6.120;2023-04-16T14:30:15;17.10;99.90
7972;DHT22;4031;49.758;6.120;2023-04-16T14:32:41;16.70;99.90
7972;DHT22;4031;49.758;6.120;2023-04-16T14:35:07;16.70;99.90
7972;DHT22;4031;49.758;6.120;2023-04-16T14:37:34;16.70;99.90
7972;DHT22;4031;49.758;6.120;2023-04-16T14:40:01;17.40;99.90
7972;DHT22;4031;49.758;6.120;2023-04-16T14:42:31;17.30;99.90
7972;DHT22;4031;49.758;6.120;2023-04-16T14:44:57;16.90;99.90
7972;DHT22;4031;49.758;6.120;2023-04-16T14:47:23;16.20;99.90
7972;DHT22;4031;49.758;6.120;2023-04-16T14:49:49;15.50;99.90
7972;DHT22;4031;49.758;6.120;2023-04-16T14:52:15;15.00;99.90
7972;DHT22;4031;49.758;6.120;2023-04-16T14:54:40;14.70;99.90
7972;DHT22;4031;49.758;6.120;2023-04-16T14:57:06;14.30;99.90
7972;DHT22;4031;49.758;6.120;2023-04-16T14:59:32;13.90;99.90
7972;DHT22;4031;49.758;6.120;2023-04-16T15:01:58;13.70;99.90
7972;DHT22;4031;49.758;6.120;2023-04-16T15:04:24;13.50;99.90
7972;DHT22;4031;49.758;6.120;2023-04-16T15:06:50;13.40;99.90
7972;DHT22;4031;49.758;6.120;2023-04-16T15:09:15;13.20;99.90
7972;DHT22;4031;49.758;6.120;2023-04-16T15:11:41;13.30;99.90
7972;DHT22;4031;49.758;6.120;2023-04-16T15:14:07;13.20;99.90
7972;DHT22;4031;49.758;6.120;2023-04-16T15:16:33;13.30;99.90
7972;DHT22;4031;49.758;6.120;2023-04-16T15:18:58;13.20;99.90
7972;DHT22;4031;49.758;6.120;2023-04-16T15:21:25;13.10;99.90
7972;DHT22;4031;49.758;6.120;2023-04-16T15:23:52;13.20;99.90
7972;DHT22;4031;49.758;6.120;2023-04-16T15:26:18;13.30;99.90
7972;DHT22;4031;49.758;6.120;2023-04-16T15:28:43;13.40;99.90
7972;DHT22;4031;49.758;6.120;2023-04-16T15:31:09;13.50;99.90
7972;DHT22;4031;49.758;6.120;2023-04-16T15:33:35;13.60;99.90
7972;DHT22;4031;49.758;6.120;2023-04-16T15:36:01;13.70;99.90
7972;DHT22;4031;49.758;6.120;2023-04-16T15:38:28;13.90;99.90
7972;DHT22;4031;49.758;6.120;2023-04-16T15:40:57;13.90;99.90
7972;DHT22;4031;49.758;6.120;2023-04-16T15:43:26;14.00;99.90
7972;DHT22;4031;49.758;6.120;2023-04-16T15:45:52;14.20;99.90
7972;DHT22;4031;49.758;6.120;2023-04-16T15:48:18;14.20;99.90
7972;DHT22;4031;49.758;6.120;2023-04-16T15:50:44;14.30;99.90
7972;DHT22;4031;49.758;6.120;2023-04-16T15:53:09;14.10;99.90
7972;DHT22;4031;49.758;6.120;2023-04-16T15:55:35;14.10;99.90
7972;DHT22;4031;49.758;6.120;2023-04-16T15:58:01;14.20;99.90
7972;DHT22;4031;49.758;6.120;2023-04-16T16:00:27;14.00;99.90
7972;DHT22;4031;49.758;6.120;2023-04-16T16:02:53;13.90;99.90
7972;DHT22;4031;49.758;6.120;2023-04-16T16:05:18;13.70;99.90
7972;DHT22;4031;49.758;6.120;2023-04-16T16:07:44;13.50;99.90
7972;DHT22;4031;49.758;6.120;2023-04-16T16:10:11;13.20;99.90
7972;DHT22;4031;49.758;6.120;2023-04-16T16:12:38;13.10;99.90
7972;DHT22;4031;49.758;6.120;2023-04-16T16:15:05;13.00;99.90
7972;DHT22;4031;49.758;6.120;2023-04-16T16:17:31;13.20;99.90
7972;DHT22;4031;49.758;6.120;2023-04-16T16:19:57;13.50;99.90
7972;DHT22;4031;49.758;6.120;2023-04-16T16:22:23;13.80;99.90
7972;DHT22;4031;49.758;6.120;2023-04-16T16:24:50;13.80;99.90